Wappingers Falls, NY (12590)

3:29 PM EDT on September 16, 2014 (GMT -0400)
Crown Heights | Change Station
CLOSE
Current Station
Personal Weather Station
Location: Poughkeepsie, NY
Elevation: 308 ft
Nearby Weather Stations

Elev 308 ft 41.62 °N, 73.92 °W | Updated 0 second ago

Overcast
Overcast
67.0 °F
Feels Like 67.0 °F
N
0.0
Wind Variable Wind from NNW
Gusts 1.0 mph

Today
High -- | Low -- °F
--% Chance of Precip.
Yesterday
High -- | Low -- °F
Precip. -- in
6:36 AM 7:03 PM
Last Quarter, 43% visible
Pressure 29.96 in
Visibility 10.0 miles
Clouds Few 5500 ft
Overcast 7000 ft
Dew Point 55 °F
Humidity 66%
Rainfall 0.22 in
Snow Depth Not available.
UV 2 out of 12
Pollen 1.60 out of 12
PM2.5 Good
Flu Activity Not available.
METAR KPOU 161853Z 35003KT 10SM FEW055 OVC070 20/11 A2996 RMK AO2 SLP144 T02000111

More Conditions Fewer Conditions

Pressure 29.96 in
Visibility 10.0 miles
Clouds Few 5500 ft
Overcast 7000 ft
Dew Point 55 °F
Humidity 66%
Rainfall 0.22 in
Snow Depth Not available.
UV 2 out of 12
Pollen 1.60 out of 12
PM2.5 Good
Flu Activity Not available.
METAR KPOU 161853Z 35003KT 10SM FEW055 OVC070 20/11 A2996 RMK AO2 SLP144 T02000111

More Conditions Fewer Conditions

10-Day Weather Forecast

Almanac

Astronomy

Sep. 16, 2014 Rise Set
Actual Time 6:36 AM EDT 7:03 PM EDT
Civil Twilight 6:08 AM EDT 7:30 PM EDT
Nautical Twilight 5:36 AM EDT 8:03 PM EDT
Astronomical Twilight 5:02 AM EDT 8:37 PM EDT
Moon No Moon Rise 2:28 PM EDT
Length of Visible Light 13h 22m
Length of Day
12h 26m
Tomorrow will be 2m 46s shorter.
Last Quarter, 43% of the Moon is Illuminated
Today
Last Quarter
Sep 24
New
Oct 1
First Quarter
Oct 8
Full
Oct 15
Last Quarter

Today's Extremes

State Highs State Lows

Community

WunderPhotos

Upload Photos

1,753,860 photos uploaded!

WunderBlogs® & News

Nearby

Air Quality

  Air Quality AQ Index Pollutant
Yesterday Good
OZONE
Yesterday Good
PM2.5
Current Good
PM2.5
Tuesday Good
OZONE
Tuesday Good
PM2.5
Wednesday Good
OZONE
Wednesday Good
PM2.5

Snow Depth

Station Depth Elevation
No new snow has been reported.

Earthquake Activity

City Distance Mag. Time & Date
No recent earthquake activity has been reported nearby.
Minimum magnitude displayed is 2.5.

Coastal Water Temperatures

Place Temperature
No Stations Reporting

Nearby Weather Stations